Murchison, New Zealand
Current Conditions -  °F | °C
As of 2:30 PM on Wednesday 26 Nov 2014 (Local Time) from NZCH Reporting Station
Clear Clear  
Wind Chill: 77°   Ceiling: Unl
Heat Index: 77°   Visibility: 6mi
Dew Point: 34°   Wind: 18mph
Humidity: 21%   Direction: 300°WNW
Pressure: 29.53"   Gusts: NA
Location:  41.81°S, 172.33°E
Report Text: NZCH 260230Z AUTO 30016KT 260V330 9999 NCD 25/01 Q1000 NOSIG
Loading
Personal Weather Stations






























Interactive Weather Map New forecast layout! Learn more

10-Day Weather Forecast

Advertisements
Track Severe Weather on mobile